Time;durP1;ratioP1;P1;durP2;ratioP2;P2;SDS_P1;SDS_P2;PMS_P1;PMS_P2;Temp;Humidity;BMP_temperature;BMP_pressure;BME280_temperature;BME280_humidity;BME280_pressure;Samples;Min_cycle;Max_cycle;Signal;HPM_P1;HPM_P2
2022/12/30 00:02:15;;;;;;;12.33;3.07;;;;;;;3.33;93.91;100234.63;5048066;28;20197;-68
2022/12/30 00:04:42;;;;;;;10.87;3.47;;;;;;;3.34;93.95;100239.94;5048597;28;20198;-69
2022/12/30 00:07:08;;;;;;;9.10;3.47;;;;;;;3.35;94.38;100240.81;5044787;28;20227;-69
2022/12/30 00:09:34;;;;;;;9.37;3.60;;;;;;;3.30;93.81;100237.13;5047400;28;20257;-68
2022/12/30 00:33:06;;;;;;;11.90;3.40;;;;;;;3.21;94.13;100242.91;5046613;28;20288;-69
2022/12/30 00:34:12;;;;;;;14.73;5.60;;;;;;;3.07;93.75;100230.97;5046284;28;20825;-68
2022/12/30 00:36:39;;;;;;;12.13;4.27;;;;;;;3.02;94.17;100229.88;5042964;28;20225;-68
2022/12/30 00:39:05;;;;;;;13.30;4.90;;;;;;;2.90;94.06;100227.66;5029477;28;20593;-68
2022/12/30 00:44:16;;;;;;;8.60;4.13;;;;;;;2.68;94.24;100240.66;5040968;28;20206;-69
2022/12/30 00:46:44;;;;;;;12.70;4.87;;;;;;;2.54;94.26;100253.16;5045793;28;20296;-70
2022/12/30 00:57:26;;;;;;;16.20;4.83;;;;;;;3.02;95.96;100301.41;5047708;28;20193;-69
2022/12/30 00:59:52;;;;;;;17.23;5.17;;;;;;;2.99;95.93;100306.50;5050151;28;20207;-69
2022/12/30 01:02:18;;;;;;;15.57;4.90;;;;;;;2.96;95.70;100310.72;5050587;28;20205;-68
2022/12/30 01:04:47;;;;;;;11.53;4.77;;;;;;;2.93;95.57;100308.88;5048208;28;20627;-70
2022/12/30 01:07:14;;;;;;;14.73;5.13;;;;;;;2.79;95.47;100310.88;5048719;28;20287;-68
2022/12/30 01:09:40;;;;;;;12.13;4.30;;;;;;;2.75;95.50;100314.19;5047015;28;20639;-67
2022/12/30 01:12:10;;;;;;;16.77;5.17;;;;;;;2.82;95.98;100321.50;5050130;28;20223;-68
2022/12/30 01:14:39;;;;;;;14.07;4.63;;;;;;;2.77;95.38;100324.72;5043400;28;20200;-68
2022/12/30 01:17:08;;;;;;;12.87;4.70;;;;;;;2.69;95.57;100315.66;5048009;28;20212;-70
2022/12/30 01:19:34;;;;;;;10.40;4.70;;;;;;;2.56;95.40;100316.84;5046950;28;20193;-70
2022/12/30 01:22:02;;;;;;;17.30;3.90;;;;;;;2.51;95.25;100319.25;5046769;28;20302;-68
2022/12/30 01:24:28;;;;;;;14.33;4.73;;;;;;;2.45;95.41;100315.50;5048723;28;20199;-70
2022/12/30 01:26:55;;;;;;;9.50;3.83;;;;;;;2.69;95.68;100323.50;5050905;28;20285;-68
2022/12/30 01:29:29;;;;;;;13.97;4.20;;;;;;;2.72;95.40;100323.63;5050354;28;20216;-68
2022/12/30 01:31:59;;;;;;;15.17;4.87;;;;;;;2.56;95.15;100319.47;5048490;28;20204;-68
2022/12/30 01:34:26;;;;;;;11.33;3.93;;;;;;;2.35;95.12;100319.38;5041627;28;20220;-68
2022/12/30 01:36:52;;;;;;;11.30;4.40;;;;;;;2.23;95.26;100324.06;5049146;28;20989;-70
2022/12/30 01:39:19;;;;;;;12.80;4.20;;;;;;;2.09;95.29;100327.78;5054361;28;20619;-70
2022/12/30 01:41:46;;;;;;;10.57;4.00;;;;;;;1.93;95.27;100315.72;5058559;28;20203;-70
2022/12/30 01:44:49;;;;;;;13.53;4.17;;;;;;;1.95;95.87;100324.50;5061210;28;20203;-69
2022/12/30 01:47:30;;;;;;;11.20;3.63;;;;;;;1.93;96.14;100335.72;5056921;28;20293;-69
2022/12/30 01:50:12;;;;;;;17.13;4.43;;;;;;;2.14;96.89;100341.94;5047380;28;20297;-69
2022/12/30 01:53:07;;;;;;;10.33;4.37;;;;;;;2.17;96.96;100340.38;5049219;28;20204;-67
2022/12/30 01:55:39;;;;;;;14.03;3.70;;;;;;;2.37;97.22;100345.59;5038733;28;20216;-68
2022/12/30 01:58:10;;;;;;;11.57;4.37;;;;;;;2.38;96.87;100347.38;5046537;28;20195;-69
2022/12/30 02:00:37;;;;;;;12.57;4.13;;;;;;;2.40;96.92;100337.88;5045104;28;20237;-68
2022/12/30 02:03:04;;;;;;;7.83;3.13;;;;;;;2.48;96.90;100344.38;5049357;28;20198;-68
2022/12/30 02:05:35;;;;;;;8.27;3.47;;;;;;;2.44;96.91;100358.13;5047906;28;20314;-68
2022/12/30 02:08:15;;;;;;;16.60;4.10;;;;;;;2.32;96.44;100363.66;5047212;28;20264;-69
2022/12/30 02:10:46;;;;;;;7.20;3.17;;;;;;;2.22;96.30;100371.91;5046330;28;20200;-68
2022/12/30 02:13:14;;;;;;;7.97;3.13;;;;;;;2.16;96.61;100375.16;5047864;28;20202;-70
2022/12/30 02:15:49;;;;;;;7.60;3.10;;;;;;;2.05;96.38;100373.75;5047921;28;20790;-68
2022/12/30 02:18:33;;;;;;;12.53;3.77;;;;;;;1.99;96.35;100372.56;5045928;28;20210;-68
2022/12/30 02:21:21;;;;;;;6.67;3.60;;;;;;;1.95;96.49;100368.91;5042737;28;20720;-68
2022/12/30 02:24:12;;;;;;;8.00;3.33;;;;;;;1.89;96.72;100366.00;5048103;28;20197;-69
2022/12/30 02:26:54;;;;;;;9.27;3.77;;;;;;;1.78;96.47;100360.28;5046540;28;20698;-68
2022/12/30 02:29:39;;;;;;;14.07;3.90;;;;;;;1.77;96.59;100363.72;5042444;28;20244;-69
2022/12/30 02:32:30;;;;;;;6.13;3.30;;;;;;;1.72;96.56;100362.63;5048570;28;20199;-68
2022/12/30 02:35:20;;;;;;;11.17;3.30;;;;;;;1.76;96.87;100361.03;5046204;28;20206;-69
2022/12/30 02:37:57;;;;;;;12.03;3.80;;;;;;;1.81;96.85;100365.66;5047879;28;20199;-68
2022/12/30 02:44:36;;;;;;;10.20;3.80;;;;;;;1.81;96.87;100375.19;5041501;28;20630;-67
2022/12/30 02:46:11;;;;;;;8.90;3.83;;;;;;;1.79;97.11;100375.13;5040754;28;20361;-69
2022/12/30 02:48:42;;;;;;;11.83;3.70;;;;;;;1.78;97.12;100362.91;5048064;28;20243;-68
2022/12/30 02:53:54;;;;;;;8.90;3.00;;;;;;;2.05;97.53;100378.09;5047557;28;20203;-67
2022/12/30 02:56:20;;;;;;;13.80;3.10;;;;;;;2.21;97.50;100375.34;5045830;28;20714;-68
2022/12/30 03:03:57;;;;;;;13.30;3.10;;;;;;;2.17;97.14;100373.44;5048997;28;20194;-68
2022/12/30 03:05:18;;;;;;;18.33;3.97;;;;;;;1.99;96.33;100372.56;5040609;28;20198;-67
2022/12/30 08:19:07;;;;;;;10.13;3.67;;;;;;;5.78;86.37;100377.22;5021951;23;22534;-71
2022/12/30 08:21:33;;;;;;;8.27;3.77;;;;;;;5.80;86.77;100356.25;5035556;28;20226;-71
2022/12/30 08:24:00;;;;;;;11.03;4.53;;;;;;;5.81;86.64;100364.19;5033912;28;20228;-71
2022/12/30 08:26:26;;;;;;;10.70;4.10;;;;;;;5.81;87.23;100348.41;5031930;28;20714;-71
2022/12/30 08:28:53;;;;;;;11.27;4.20;;;;;;;6.15;85.12;100358.28;5027093;28;20599;-70
2022/12/30 08:31:23;;;;;;;10.43;3.87;;;;;;;6.19;85.31;100352.28;5034091;28;20201;-70
2022/12/30 08:33:49;;;;;;;9.07;3.90;;;;;;;6.28;84.78;100346.38;5032801;28;20199;-71
2022/12/30 08:36:19;;;;;;;11.97;3.80;;;;;;;6.22;84.68;100341.84;5034286;28;21358;-70
2022/12/30 08:38:48;;;;;;;14.97;5.53;;;;;;;6.34;85.31;100346.56;5032011;28;20228;-71
2022/12/30 08:41:19;;;;;;;12.37;4.17;;;;;;;6.32;85.60;100340.38;5031498;28;20223;-70
2022/12/30 08:43:47;;;;;;;12.10;4.33;;;;;;;6.50;85.48;100334.78;5015186;28;20203;-70
2022/12/30 08:46:14;;;;;;;6.57;3.40;;;;;;;6.58;85.31;100334.13;5015643;28;20312;-71
2022/12/30 08:48:41;;;;;;;14.53;3.97;;;;;;;6.71;85.20;100340.63;5031170;28;20711;-71
2022/12/30 08:51:08;;;;;;;11.53;3.70;;;;;;;6.72;85.50;100325.72;5033254;28;20218;-71
2022/12/30 08:53:35;;;;;;;8.47;3.53;;;;;;;6.91;85.06;100338.56;5030063;28;20318;-71
2022/12/30 08:56:07;;;;;;;7.73;2.80;;;;;;;7.00;85.15;100338.78;5011333;28;20218;-70
2022/12/30 08:58:34;;;;;;;9.63;3.13;;;;;;;7.13;84.90;100340.91;5016608;28;20205;-69
2022/12/30 09:01:33;;;;;;;8.57;2.43;;;;;;;7.24;84.84;100335.94;5030899;28;20199;-70
2022/12/30 09:04:00;;;;;;;9.67;2.90;;;;;;;7.37;84.21;100338.00;5013825;28;20211;-70
2022/12/30 09:06:29;;;;;;;6.90;2.50;;;;;;;7.40;83.93;100319.66;5034000;28;20777;-69
2022/12/30 09:08:57;;;;;;;11.30;2.67;;;;;;;7.50;84.06;100328.66;5029946;28;20932;-69
2022/12/30 09:11:28;;;;;;;11.03;3.10;;;;;;;7.59;83.65;100318.34;5027043;28;20199;-70
2022/12/30 09:13:56;;;;;;;9.10;2.17;;;;;;;7.74;82.03;100331.00;5024736;28;20897;-70
2022/12/30 09:16:27;;;;;;;6.40;2.27;;;;;;;7.81;81.37;100328.56;5028184;28;20269;-70
2022/12/30 09:18:53;;;;;;;5.60;2.20;;;;;;;7.91;80.96;100313.81;5021642;28;20262;-69
2022/12/30 09:21:20;;;;;;;7.37;2.30;;;;;;;7.87;79.62;100275.06;5029118;28;20195;-69
2022/12/30 09:23:48;;;;;;;6.30;2.00;;;;;;;8.10;78.90;100294.03;5030102;28;20208;-69
2022/12/30 09:26:18;;;;;;;7.90;2.10;;;;;;;8.11;78.58;100288.81;5025864;28;20215;-69
2022/12/30 09:28:45;;;;;;;6.67;1.93;;;;;;;8.09;78.51;100279.97;5029555;28;20204;-69
2022/12/30 09:31:11;;;;;;;6.50;2.30;;;;;;;7.96;78.52;100263.81;5011919;28;20679;-69
2022/12/30 09:33:38;;;;;;;6.40;2.37;;;;;;;7.88;78.73;100263.66;5029035;28;20207;-69
2022/12/30 09:36:06;;;;;;;6.53;2.10;;;;;;;7.80;79.21;100263.50;5029717;28;20258;-69
2022/12/30 09:38:33;;;;;;;8.20;2.30;;;;;;;7.76;79.46;100266.03;4971975;28;20276;-69
2022/12/30 09:44:29;;;;;;;12.90;3.10;;;;;;;7.69;80.24;100250.94;5001379;28;20228;-69
2022/12/30 09:47:12;;;;;;;10.23;2.80;;;;;;;7.68;80.37;100247.41;4998637;28;20239;-69
2022/12/30 09:49:44;;;;;;;8.93;3.23;;;;;;;7.72;80.19;100243.09;5007235;28;20208;-70
2022/12/30 09:52:53;;;;;;;5.03;2.60;;;;;;;7.70;80.27;100243.06;5008418;28;20262;-70
2022/12/30 09:55:30;;;;;;;8.07;3.23;;;;;;;7.65;79.98;100247.34;4963370;28;20233;-70
2022/12/30 09:58:03;;;;;;;6.60;2.90;;;;;;;7.70;80.07;100239.53;4965450;28;20197;-71
2022/12/30 10:00:33;;;;;;;14.70;2.80;;;;;;;7.79;80.49;100245.91;4985333;28;20205;-70
2022/12/30 10:03:16;;;;;;;11.90;2.90;;;;;;;7.87;80.05;100246.06;5007842;28;20612;-70
2022/12/30 10:06:17;;;;;;;9.40;2.80;;;;;;;7.97;79.87;100247.16;5005577;28;20688;-70
2022/12/30 10:09:04;;;;;;;6.07;3.10;;;;;;;8.10;79.39;100241.31;4998415;28;20205;-70
2022/12/30 10:11:48;;;;;;;8.70;3.07;;;;;;;8.27;78.65;100239.88;5003780;28;20207;-70
2022/12/30 10:14:27;;;;;;;6.17;2.80;;;;;;;8.40;78.66;100231.38;5002142;28;20208;-70
2022/12/30 10:17:08;;;;;;;10.00;3.93;;;;;;;8.51;77.58;100220.16;5000493;28;20244;-70
2022/12/30 10:19:50;;;;;;;10.47;2.97;;;;;;;8.63;76.62;100223.00;5001711;28;20287;-71
2022/12/30 10:22:25;;;;;;;6.70;2.57;;;;;;;8.63;76.30;100209.81;5004474;28;20231;-70
2022/12/30 10:25:14;;;;;;;5.80;2.50;;;;;;;8.71;76.45;100193.25;5006099;28;20201;-71
2022/12/30 10:27:49;;;;;;;6.90;2.60;;;;;;;8.81;75.83;100190.78;5002334;28;20227;-69
2022/12/30 10:30:19;;;;;;;8.90;2.73;;;;;;;8.83;74.83;100179.38;5006249;28;20225;-69
2022/12/30 10:32:54;;;;;;;6.93;3.20;;;;;;;8.81;75.26;100177.59;5004975;28;20247;-69
2022/12/30 10:35:28;;;;;;;13.60;4.10;;;;;;;8.68;76.29;100177.34;5006458;28;20199;-69
2022/12/30 10:38:08;;;;;;;8.93;3.77;;;;;;;8.74;76.50;100177.47;5006407;28;20210;-69
2022/12/30 10:40:44;;;;;;;8.93;3.47;;;;;;;8.70;76.12;100170.34;4992294;28;20247;-69
2022/12/30 10:43:45;;;;;;;5.87;3.40;;;;;;;8.61;76.54;100164.91;5002025;28;20283;-69
2022/12/30 10:46:44;;;;;;;6.13;3.70;;;;;;;8.60;77.10;100167.53;5011611;28;20225;-69
2022/12/30 10:50:00;;;;;;;9.00;4.47;;;;;;;8.50;77.68;100163.84;4999938;28;20248;-69
2022/12/30 10:52:27;;;;;;;6.90;4.33;;;;;;;8.46;78.10;100154.09;4984283;28;20669;-69
2022/12/30 10:54:54;;;;;;;7.50;4.63;;;;;;;8.43;78.63;100162.84;4998544;28;20200;-69
2022/12/30 10:57:27;;;;;;;8.83;5.60;;;;;;;8.39;78.62;100153.06;5008515;28;20226;-69
2022/12/30 10:59:56;;;;;;;10.37;5.40;;;;;;;8.45;78.90;100136.50;5004358;28;20231;-69
2022/12/30 11:02:31;;;;;;;11.90;5.83;;;;;;;8.50;78.96;100140.09;4997792;28;20235;-69
2022/12/30 11:04:59;;;;;;;12.17;5.57;;;;;;;8.42;78.69;100124.13;4996177;28;20589;-69
2022/12/30 11:07:25;;;;;;;8.53;5.47;;;;;;;8.49;78.26;100119.84;4998184;28;20219;-69
2022/12/30 11:09:52;;;;;;;11.80;6.20;;;;;;;8.55;78.04;100117.31;4997656;28;20658;-69
2022/12/30 11:15:20;;;;;;;11.10;5.93;;;;;;;8.62;78.02;100134.13;4971923;28;20249;-69
2022/12/30 11:17:57;;;;;;;9.63;5.53;;;;;;;8.53;78.63;100128.69;5014828;28;20715;-69
2022/12/30 11:20:30;;;;;;;7.63;5.40;;;;;;;8.63;78.45;100130.63;5025607;28;20214;-68
2022/12/30 11:22:59;;;;;;;10.37;5.80;;;;;;;8.56;78.71;100121.72;5028293;28;20231;-69
2022/12/30 11:25:29;;;;;;;7.63;5.13;;;;;;;8.60;78.91;100115.63;5028123;28;20226;-69
2022/12/30 11:27:59;;;;;;;8.73;5.20;;;;;;;8.56;79.28;100095.31;5019826;28;20254;-69
2022/12/30 11:30:30;;;;;;;7.17;5.47;;;;;;;8.64;78.84;100109.53;5023568;28;20224;-70
2022/12/30 11:33:01;;;;;;;8.63;4.60;;;;;;;8.61;78.82;100106.84;5009947;28;20222;-69
2022/12/30 11:35:53;;;;;;;7.30;4.53;;;;;;;8.62;78.82;100108.63;5029597;28;20204;-70
2022/12/30 11:38:31;;;;;;;4.87;4.00;;;;;;;8.61;78.72;100108.59;5024458;28;20206;-70
2022/12/30 11:41:13;;;;;;;5.97;4.03;;;;;;;8.55;78.83;100092.66;5024052;28;20202;-69
2022/12/30 11:43:40;;;;;;;5.20;3.20;;;;;;;8.48;79.04;100094.31;5024391;28;20691;-70
2022/12/30 11:46:10;;;;;;;6.47;3.20;;;;;;;8.42;79.49;100070.47;5022043;28;20246;-67
2022/12/30 11:48:43;;;;;;;5.23;3.10;;;;;;;8.50;79.11;100078.50;5018034;28;20204;-67
2022/12/30 11:51:20;;;;;;;7.57;3.13;;;;;;;8.51;79.02;100069.72;5018107;28;20220;-67
2022/12/30 11:53:48;;;;;;;5.53;2.90;;;;;;;8.50;78.57;100066.19;5017602;28;20207;-70
2022/12/30 11:56:22;;;;;;;4.67;2.73;;;;;;;8.44;78.18;100048.53;5027940;28;20353;-72
2022/12/30 11:58:49;;;;;;;3.97;2.63;;;;;;;8.48;78.53;100045.06;5026194;28;20209;-71
2022/12/30 12:01:15;;;;;;;5.43;2.80;;;;;;;8.50;78.79;100034.53;5024945;28;20199;-72
2022/12/30 12:03:57;;;;;;;3.13;2.43;;;;;;;8.48;78.25;100025.69;5027088;28;20210;-71
2022/12/30 12:06:24;;;;;;;4.90;2.73;;;;;;;8.41;78.42;100022.09;5024740;28;20217;-72
2022/12/30 12:09:08;;;;;;;6.20;2.90;;;;;;;8.41;78.53;100026.47;5026753;28;20540;-71
2022/12/30 12:11:39;;;;;;;4.10;2.80;;;;;;;8.43;78.26;100025.63;5023036;28;20254;-72
2022/12/30 12:14:28;;;;;;;4.77;2.40;;;;;;;8.52;77.89;100013.44;5026317;28;20598;-72
2022/12/30 12:17:09;;;;;;;2.70;2.07;;;;;;;8.65;77.22;100023.31;5026564;28;20250;-71
2022/12/30 12:19:58;;;;;;;3.37;2.00;;;;;;;8.58;77.45;100013.53;5023370;28;20226;-71
2022/12/30 12:23:13;;;;;;;3.67;2.03;;;;;;;8.57;77.38;100004.72;5008582;28;20200;-71
2022/12/30 12:25:47;;;;;;;2.77;2.07;;;;;;;8.62;77.14;99995.13;5017873;28;20314;-71
2022/12/30 12:28:14;;;;;;;4.10;2.10;;;;;;;8.63;77.03;99982.81;5026521;28;20210;-71
2022/12/30 12:30:48;;;;;;;5.97;2.10;;;;;;;8.59;77.06;99979.25;5024040;28;20215;-71
2022/12/30 12:33:33;;;;;;;5.13;2.10;;;;;;;8.65;77.33;99981.06;5026912;28;20210;-72
2022/12/30 12:36:10;;;;;;;3.90;1.77;;;;;;;8.63;76.66;99978.41;5026076;28;20226;-71
2022/12/30 12:38:58;;;;;;;4.00;1.90;;;;;;;8.65;76.71;99978.44;5023060;28;20228;-71
2022/12/30 12:41:46;;;;;;;1.90;1.60;;;;;;;8.57;76.89;99977.44;5027810;28;20192;-71
2022/12/30 12:44:41;;;;;;;6.00;1.70;;;;;;;8.66;76.35;99959.09;5008174;28;20274;-72
2022/12/30 12:47:07;;;;;;;2.87;1.53;;;;;;;8.71;75.91;99946.84;5020775;28;20265;-71
2022/12/30 12:49:47;;;;;;;2.30;1.60;;;;;;;8.75;75.69;99946.91;5029365;28;20202;-71
2022/12/30 12:52:41;;;;;;;3.20;1.50;;;;;;;8.70;75.85;99948.59;5030435;28;20222;-71
2022/12/30 12:55:26;;;;;;;3.03;1.50;;;;;;;8.68;75.94;99937.13;5024634;28;20196;-71
2022/12/30 12:58:02;;;;;;;3.93;1.63;;;;;;;8.75;75.70;99949.53;5026903;28;20200;-72
2022/12/30 13:00:41;;;;;;;2.10;1.30;;;;;;;8.75;75.50;99930.19;5021023;28;20194;-71
2022/12/30 13:03:27;;;;;;;2.67;1.33;;;;;;;8.83;75.27;99927.66;5019642;28;20221;-71
2022/12/30 13:06:20;;;;;;;3.57;1.63;;;;;;;8.81;75.41;99913.56;5018259;28;20213;-71
2022/12/30 13:09:27;;;;;;;3.40;1.20;;;;;;;8.87;74.45;99900.44;4981478;28;20357;-71
2022/12/30 13:12:06;;;;;;;1.87;1.30;;;;;;;8.92;73.97;99896.09;5020766;28;20219;-71
2022/12/30 13:14:49;;;;;;;4.37;1.40;;;;;;;8.93;73.91;99885.53;5024131;28;20226;-71
2022/12/30 13:17:31;;;;;;;1.57;1.30;;;;;;;8.87;73.74;99876.66;5027380;28;20578;-71
2022/12/30 13:20:09;;;;;;;2.77;1.57;;;;;;;8.81;74.12;99882.75;5016513;28;20255;-71
2022/12/30 13:22:37;;;;;;;2.27;1.40;;;;;;;8.81;74.21;99884.50;5023072;28;20199;-71
2022/12/30 13:25:14;;;;;;;5.03;1.47;;;;;;;8.71;74.52;99863.25;5022007;28;20681;-71
2022/12/30 13:27:52;;;;;;;5.50;1.60;;;;;;;8.70;74.98;99866.75;5022807;28;20235;-71
2022/12/30 13:30:21;;;;;;;2.50;1.40;;;;;;;8.73;74.87;99850.06;5026028;28;20222;-71
2022/12/30 13:33:02;;;;;;;4.33;1.67;;;;;;;8.72;74.94;99836.00;5025497;28;20232;-71
2022/12/30 13:35:38;;;;;;;1.77;1.47;;;;;;;8.63;75.35;99833.25;5015884;28;20211;-71
2022/12/30 13:38:42;;;;;;;4.10;1.80;;;;;;;8.62;75.71;99838.50;5026562;28;20248;-71
2022/12/30 13:41:11;;;;;;;3.60;1.47;;;;;;;8.64;75.95;99832.38;5023900;28;20227;-71
2022/12/30 13:43:51;;;;;;;3.73;1.77;;;;;;;8.49;75.55;99826.91;5018437;28;20700;-71
2022/12/30 13:46:21;;;;;;;4.90;1.60;;;;;;;8.60;75.34;99829.69;5019791;28;20588;-71
2022/12/30 13:48:57;;;;;;;2.43;1.47;;;;;;;8.54;75.70;99819.94;5017040;28;20258;-71
2022/12/30 13:51:26;;;;;;;2.13;1.47;;;;;;;8.55;75.61;99812.91;5025752;28;20266;-71
2022/12/30 13:54:01;;;;;;;3.93;2.00;;;;;;;8.61;75.31;99807.69;5017662;28;20207;-71
2022/12/30 13:56:49;;;;;;;6.03;2.00;;;;;;;8.57;75.43;99798.88;5024319;28;20225;-71
2022/12/30 13:59:37;;;;;;;3.10;1.50;;;;;;;8.52;75.05;99774.19;5016930;28;20188;-71
2022/12/30 14:02:19;;;;;;;2.07;1.30;;;;;;;8.63;74.50;99780.47;5028196;28;20678;-71
2022/12/30 14:04:50;;;;;;;6.47;1.50;;;;;;;8.65;74.39;99780.47;5018777;28;20289;-71
2022/12/30 14:07:37;;;;;;;3.37;1.80;;;;;;;8.64;74.59;99779.59;5018467;28;20222;-72
2022/12/30 14:10:17;;;;;;;3.70;1.70;;;;;;;8.67;74.65;99776.09;5021263;28;20228;-71
2022/12/30 14:12:45;;;;;;;3.60;1.70;;;;;;;8.68;74.63;99775.22;5022186;28;20206;-71
2022/12/30 14:15:30;;;;;;;2.20;1.53;;;;;;;8.68;75.39;99768.19;5018429;28;20230;-71
2022/12/30 14:17:59;;;;;;;3.77;1.50;;;;;;;8.69;75.43;99772.59;5023441;28;20207;-71
2022/12/30 14:20:30;;;;;;;3.70;1.47;;;;;;;8.61;75.91;99761.06;5021669;28;20199;-71
2022/12/30 14:23:02;;;;;;;2.53;1.50;;;;;;;8.64;76.05;99761.09;5011804;28;20200;-71
2022/12/30 14:25:33;;;;;;;3.17;1.63;;;;;;;8.63;76.83;99763.72;5021617;28;20206;-71
2022/12/30 14:28:12;;;;;;;5.77;1.77;;;;;;;8.58;77.46;99761.03;5019648;28;20255;-71
2022/12/30 14:30:45;;;;;;;2.90;1.80;;;;;;;8.53;77.81;99759.22;5027178;28;20697;-71
2022/12/30 14:33:26;;;;;;;4.47;1.90;;;;;;;8.54;78.13;99764.53;5015204;28;20696;-71
2022/12/30 14:36:00;;;;;;;5.73;1.60;;;;;;;8.46;79.19;99759.16;5009581;28;20251;-71
2022/12/30 14:38:31;;;;;;;3.50;2.00;;;;;;;8.40;79.76;99751.16;5025868;28;20196;-71
2022/12/30 14:41:04;;;;;;;3.73;1.80;;;;;;;8.35;80.63;99747.56;5022153;28;20196;-71
2022/12/30 14:43:34;;;;;;;3.53;1.50;;;;;;;8.40;80.75;99744.97;5020496;28;20240;-71
2022/12/30 14:46:40;;;;;;;4.23;1.87;;;;;;;8.34;80.71;99739.63;5027239;28;20224;-71
2022/12/30 14:49:30;;;;;;;2.47;1.53;;;;;;;8.33;80.82;99730.84;5018173;28;20290;-71
2022/12/30 14:52:02;;;;;;;3.33;1.57;;;;;;;8.27;81.51;99725.47;5029156;28;20304;-71
2022/12/30 14:54:43;;;;;;;2.10;1.40;;;;;;;8.12;81.99;99699.81;5015897;28;20204;-71
2022/12/30 14:57:11;;;;;;;3.33;1.70;;;;;;;8.25;81.35;99710.50;5027435;28;20215;-71
2022/12/30 15:00:02;;;;;;;3.43;1.83;;;;;;;8.17;82.17;99703.38;5021789;28;20244;-71
2022/12/30 15:02:31;;;;;;;2.93;1.90;;;;;;;8.08;82.66;99695.38;5018984;28;20217;-71
2022/12/30 15:05:30;;;;;;;2.87;1.70;;;;;;;8.11;82.51;99705.06;5028251;28;20720;-71
2022/12/30 15:08:04;;;;;;;2.30;1.70;;;;;;;8.08;82.79;99703.28;4985281;28;20204;-69
2022/12/30 15:10:49;;;;;;;2.73;1.60;;;;;;;8.04;82.38;99693.56;5018121;28;20258;-70
2022/12/30 15:13:33;;;;;;;4.50;1.73;;;;;;;8.04;83.01;99682.13;5022750;28;20594;-70
2022/12/30 15:16:05;;;;;;;5.27;1.83;;;;;;;8.00;83.26;99681.16;5022730;28;21620;-70
2022/12/30 15:18:33;;;;;;;2.87;2.10;;;;;;;8.04;82.98;99672.47;5022985;28;20207;-69
2022/12/30 15:21:18;;;;;;;3.30;1.80;;;;;;;8.07;82.98;99663.69;5019157;28;20471;-70
2022/12/30 15:24:00;;;;;;;2.33;1.50;;;;;;;8.05;82.58;99674.22;5024946;28;21311;-69
2022/12/30 15:26:26;;;;;;;4.60;1.70;;;;;;;8.06;82.32;99664.56;5023279;28;20257;-70
2022/12/30 15:28:54;;;;;;;2.27;1.57;;;;;;;8.08;82.80;99676.91;5022948;28;20204;-69
2022/12/30 15:31:24;;;;;;;3.00;1.60;;;;;;;8.08;82.61;99678.66;5013395;28;20274;-70
2022/12/30 15:34:06;;;;;;;2.20;1.47;;;;;;;8.05;82.54;99687.41;5015895;28;20208;-69
2022/12/30 15:36:33;;;;;;;3.63;1.40;;;;;;;8.06;82.82;99696.22;5020808;28;20302;-70
2022/12/30 15:39:04;;;;;;;4.23;2.23;;;;;;;8.12;82.84;99698.91;5016671;28;20203;-70
2022/12/30 15:41:34;;;;;;;3.10;2.00;;;;;;;8.10;82.60;99698.03;5012103;28;20202;-69
2022/12/30 15:44:03;;;;;;;4.13;2.00;;;;;;;8.08;83.19;99707.66;5026692;28;20197;-70
2022/12/30 15:46:37;;;;;;;5.47;2.00;;;;;;;8.07;83.54;99690.06;5021884;28;20273;-69
2022/12/30 15:49:18;;;;;;;3.33;2.13;;;;;;;8.10;83.37;99696.25;5015874;28;20589;-70
2022/12/30 15:51:49;;;;;;;2.63;1.80;;;;;;;8.13;83.20;99688.38;5028306;28;20278;-69
2022/12/30 15:54:31;;;;;;;5.17;2.47;;;;;;;8.13;83.23;99682.22;5028770;28;20193;-69
2022/12/30 15:57:02;;;;;;;4.27;2.50;;;;;;;8.20;82.52;99672.63;5025412;28;20285;-70
2022/12/30 15:59:40;;;;;;;2.67;2.40;;;;;;;8.18;83.10;99672.63;5014449;28;20239;-69
2022/12/30 16:02:17;;;;;;;2.30;2.00;;;;;;;8.24;82.91;99682.34;5025384;28;20784;-69
2022/12/30 16:04:44;;;;;;;3.40;2.00;;;;;;;8.21;83.03;99667.38;5023212;28;20230;-70
2022/12/30 16:07:26;;;;;;;3.27;2.23;;;;;;;8.20;83.30;99668.25;5013906;28;20221;-70
2022/12/30 16:10:01;;;;;;;4.80;2.13;;;;;;;8.21;83.50;99674.41;5018482;28;20269;-70
2022/12/30 16:12:31;;;;;;;2.97;2.20;;;;;;;8.19;83.83;99671.75;5024839;28;20622;-70
2022/12/30 16:15:12;;;;;;;4.23;2.37;;;;;;;8.20;84.07;99673.50;5020351;28;20324;-70
2022/12/30 16:17:47;;;;;;;5.13;2.50;;;;;;;8.16;84.46;99674.34;5014147;28;20219;-70
2022/12/30 16:20:30;;;;;;;3.73;2.50;;;;;;;8.10;85.01;99672.53;5021953;28;20673;-70
2022/12/30 16:23:03;;;;;;;3.67;2.30;;;;;;;8.04;85.57;99680.38;5024255;28;20213;-70
2022/12/30 16:25:36;;;;;;;6.13;2.67;;;;;;;8.03;85.51;99675.97;5028198;28;20200;-70
2022/12/30 16:28:04;;;;;;;5.50;2.37;;;;;;;8.02;86.16;99665.41;5024995;28;20679;-70
2022/12/30 16:30:38;;;;;;;5.73;2.70;;;;;;;8.04;86.09;99675.09;5022498;28;20196;-70
2022/12/30 16:33:17;;;;;;;3.53;2.20;;;;;;;8.12;86.35;99670.78;5022174;28;20691;-70
2022/12/30 16:35:48;;;;;;;3.70;2.50;;;;;;;8.06;86.51;99676.00;5018022;28;20204;-70
2022/12/30 16:38:14;;;;;;;5.67;2.60;;;;;;;8.03;86.68;99681.25;5024326;28;20618;-70
2022/12/30 16:40:42;;;;;;;4.23;2.57;;;;;;;7.95;87.25;99677.59;5021070;28;20199;-70
2022/12/30 16:43:15;;;;;;;3.90;2.40;;;;;;;8.04;88.39;99683.00;5025804;28;20230;-70
2022/12/30 16:45:42;;;;;;;3.40;2.60;;;;;;;8.06;87.89;99689.19;5001281;28;20215;-70
2022/12/30 16:48:09;;;;;;;5.90;2.70;;;;;;;7.93;88.42;99674.06;5031765;28;20694;-70
2022/12/30 16:50:41;;;;;;;4.00;2.73;;;;;;;7.86;88.82;99673.09;5029029;28;20648;-70
2022/12/30 16:53:17;;;;;;;3.40;2.83;;;;;;;7.90;88.98;99666.13;5026991;28;20203;-70
2022/12/30 16:55:43;;;;;;;4.80;3.00;;;;;;;7.88;89.23;99674.88;5024280;28;20192;-70
2022/12/30 16:58:11;;;;;;;6.37;3.07;;;;;;;7.86;89.58;99677.50;5030939;28;20222;-70
2022/12/30 17:00:40;;;;;;;7.13;3.47;;;;;;;7.88;89.93;99677.50;5025720;28;20207;-70
2022/12/30 17:03:18;;;;;;;5.43;3.33;;;;;;;7.80;90.45;99664.25;5029291;28;20204;-70
2022/12/30 17:05:45;;;;;;;6.97;3.57;;;;;;;7.89;90.23;99685.44;5014660;28;20222;-70
2022/12/30 17:08:31;;;;;;;6.60;3.47;;;;;;;7.87;90.53;99674.00;5028131;28;20269;-70
2022/12/30 17:11:19;;;;;;;5.90;3.93;;;;;;;7.81;90.61;99684.47;5028878;28;20219;-70
2022/12/30 17:13:51;;;;;;;5.37;3.67;;;;;;;7.86;91.04;99681.00;5021846;28;20235;-70
2022/12/30 17:16:19;;;;;;;7.20;4.60;;;;;;;7.76;91.12;99686.16;5018501;28;20667;-70
2022/12/30 17:18:46;;;;;;;6.93;4.53;;;;;;;7.74;91.74;99693.16;5024752;28;20201;-70
2022/12/30 17:21:16;;;;;;;7.00;4.63;;;;;;;7.76;91.77;99681.78;5003803;28;20191;-69
2022/12/30 17:23:45;;;;;;;6.37;3.83;;;;;;;7.76;92.11;99683.53;5029023;28;20228;-70
2022/12/30 17:26:13;;;;;;;6.80;4.07;;;;;;;7.72;92.30;99692.25;5020403;28;20265;-69
2022/12/30 17:28:40;;;;;;;7.77;4.63;;;;;;;7.69;92.38;99690.47;5013057;28;20246;-69
2022/12/30 17:31:09;;;;;;;8.03;4.77;;;;;;;7.68;92.40;99691.31;5027613;28;20212;-70
2022/12/30 17:33:36;;;;;;;10.20;4.87;;;;;;;7.70;92.52;99694.88;5024971;28;20227;-69
2022/12/30 17:36:02;;;;;;;6.70;4.43;;;;;;;7.74;92.64;99701.94;5021113;28;20211;-69
2022/12/30 17:38:29;;;;;;;6.17;4.73;;;;;;;7.74;92.69;99696.69;5020439;28;20622;-69
2022/12/30 17:40:55;;;;;;;8.23;5.13;;;;;;;7.67;92.81;99689.56;5023126;28;20757;-70
2022/12/30 17:43:21;;;;;;;8.67;5.63;;;;;;;7.77;92.76;99702.00;5021986;28;20266;-70
2022/12/30 17:45:51;;;;;;;12.27;6.50;;;;;;;7.80;92.66;99696.75;5024533;28;20707;-70
2022/12/30 17:48:20;;;;;;;10.30;6.40;;;;;;;7.86;92.59;99691.56;5014890;28;20200;-70
2022/12/30 17:50:50;;;;;;;9.87;6.23;;;;;;;7.83;92.54;99690.63;5019089;28;20506;-70
2022/12/30 17:53:16;;;;;;;13.53;7.53;;;;;;;7.85;92.84;99686.28;5026858;28;20203;-70
2022/12/30 17:55:44;;;;;;;10.00;6.63;;;;;;;7.89;92.82;99689.81;5020888;28;20262;-69
2022/12/30 17:58:12;;;;;;;10.03;6.73;;;;;;;7.93;92.72;99684.59;5023399;28;20262;-69
2022/12/30 18:00:40;;;;;;;13.37;8.20;;;;;;;7.92;93.14;99687.22;5018182;28;20658;-70
2022/12/30 18:03:11;;;;;;;9.93;7.13;;;;;;;7.95;93.06;99688.16;5023679;28;20223;-70
2022/12/30 18:05:49;;;;;;;13.97;7.80;;;;;;;7.87;93.22;99681.91;5022823;28;20196;-70
2022/12/30 18:08:17;;;;;;;12.03;7.50;;;;;;;7.99;92.96;99686.44;5020799;28;20207;-70